createdAt,value
2023-02-25T00:00:38.262Z,2.63
2023-02-25T00:03:06.388Z,2.66
2023-02-25T00:05:39.779Z,2.86
2023-02-25T00:08:07.898Z,2.67
2023-02-25T00:10:35.914Z,2.78
2023-02-25T00:13:17.363Z,2.67
2023-02-25T00:15:45.873Z,2.71
2023-02-25T00:18:13.854Z,2.62
2023-02-25T00:20:43.943Z,2.85
2023-02-25T00:23:11.813Z,2.55
2023-02-25T00:25:39.750Z,2.61
2023-02-25T00:28:07.989Z,2.65
2023-02-25T00:30:36.195Z,2.58
2023-02-25T00:33:05.551Z,2.83
2023-02-25T00:35:34.290Z,2.45
2023-02-25T00:38:15.277Z,2.54
2023-02-25T00:40:44.450Z,2.70
2023-02-25T00:43:12.457Z,2.74
2023-02-25T00:45:40.998Z,2.62
2023-02-25T00:48:09.039Z,2.58
2023-02-25T00:50:39.625Z,2.62
2023-02-25T00:53:09.078Z,2.80
2023-02-25T00:55:37.374Z,2.78
2023-02-25T00:58:05.882Z,2.88
2023-02-25T01:00:43.402Z,2.87
2023-02-25T01:03:19.492Z,2.73
2023-02-25T01:05:50.930Z,2.74
2023-02-25T01:08:20.755Z,2.91
2023-02-25T01:10:49.092Z,2.90
2023-02-25T01:13:17.151Z,2.76
2023-02-25T01:15:45.516Z,2.81
2023-02-25T01:18:13.528Z,2.91
2023-02-25T01:20:41.608Z,2.92
2023-02-25T01:23:09.634Z,2.85
2023-02-25T01:25:42.159Z,2.71
2023-02-25T01:28:10.139Z,2.83
2023-02-25T01:30:38.581Z,2.85
2023-02-25T01:33:06.721Z,2.70
2023-02-25T01:35:36.630Z,2.86
2023-02-25T01:38:04.545Z,2.93
2023-02-25T01:40:32.867Z,2.98
2023-02-25T01:43:02.261Z,2.86
2023-02-25T01:45:31.854Z,2.74
2023-02-25T01:48:07.065Z,2.74
2023-02-25T01:50:41.383Z,2.75
2023-02-25T01:53:09.889Z,2.66
2023-02-25T01:55:38.151Z,2.71
2023-02-25T01:58:07.529Z,2.63
2023-02-25T02:00:35.581Z,2.53
2023-02-25T02:03:04.036Z,2.56
2023-02-25T02:05:39.559Z,2.68
2023-02-25T02:08:07.530Z,2.64
2023-02-25T02:10:35.589Z,2.53
2023-02-25T02:13:03.655Z,2.43
2023-02-25T02:15:33.360Z,2.55
2023-02-25T02:18:02.084Z,2.57
2023-02-25T02:20:31.788Z,2.62
2023-02-25T02:23:10.306Z,2.85
2023-02-25T02:26:15.915Z,2.58
2023-02-25T02:29:19.760Z,2.79
2023-02-25T02:32:08.488Z,2.90
2023-02-25T02:34:41.057Z,2.65
2023-02-25T02:37:16.454Z,2.69
2023-02-25T02:39:51.109Z,2.50
2023-02-25T02:42:21.420Z,2.61
2023-02-25T02:44:52.526Z,2.79
2023-02-25T02:47:24.091Z,2.78
2023-02-25T02:49:54.327Z,2.85
2023-02-25T02:52:24.242Z,2.91
2023-02-25T02:54:54.919Z,2.70
2023-02-25T02:57:22.999Z,2.79
2023-02-25T02:59:53.005Z,2.72
2023-02-25T03:02:23.951Z,2.77
2023-02-25T03:04:54.851Z,2.51
2023-02-25T03:07:23.027Z,2.72
2023-02-25T03:09:52.012Z,2.52
2023-02-25T03:12:19.946Z,2.68
2023-02-25T03:14:48.736Z,2.82
2023-02-25T03:17:18.043Z,2.80
2023-02-25T03:19:48.926Z,2.60
2023-02-25T03:22:18.222Z,2.47
2023-02-25T03:24:49.588Z,2.54
2023-02-25T03:27:26.009Z,2.63
2023-02-25T03:29:54.018Z,2.78
2023-02-25T03:32:22.060Z,2.84
2023-02-25T03:34:51.440Z,2.87
2023-02-25T03:37:21.943Z,2.83
2023-02-25T03:39:52.788Z,2.66
2023-02-25T03:42:21.870Z,2.63
2023-02-25T03:44:51.671Z,2.55
2023-02-25T03:47:19.692Z,2.83
2023-02-25T03:49:49.525Z,2.70
2023-02-25T03:52:21.028Z,2.45
2023-02-25T03:54:51.451Z,2.53
2023-02-25T03:57:19.505Z,2.58
2023-02-25T03:59:47.585Z,2.50
2023-02-25T04:02:15.509Z,2.50
2023-02-25T04:04:43.720Z,2.50
2023-02-25T04:07:11.779Z,2.44
2023-02-25T04:09:41.415Z,2.47
2023-02-25T04:12:09.740Z,2.33
2023-02-25T04:14:37.659Z,2.44
2023-02-25T04:17:06.319Z,2.60
2023-02-25T04:19:34.356Z,2.59
2023-02-25T04:22:02.468Z,2.34
2023-02-25T04:24:30.695Z,2.31
2023-02-25T04:27:01.710Z,2.48
2023-02-25T04:29:30.360Z,2.38
2023-02-25T04:31:58.771Z,2.62
2023-02-25T04:34:26.876Z,2.53
2023-02-25T04:36:55.101Z,2.58
2023-02-25T04:39:23.015Z,2.46
2023-02-25T04:41:50.989Z,2.45
2023-02-25T04:44:20.384Z,2.62
2023-02-25T04:46:51.842Z,2.45
2023-02-25T04:49:20.427Z,2.67
2023-02-25T04:51:49.454Z,2.60
2023-02-25T04:54:18.490Z,2.63
2023-02-25T04:56:46.485Z,2.62
2023-02-25T04:59:14.498Z,2.59
2023-02-25T05:01:44.154Z,2.56
2023-02-25T05:04:12.139Z,2.48
2023-02-25T05:06:40.378Z,2.37
2023-02-25T05:09:10.283Z,2.49
2023-02-25T05:11:38.400Z,2.60
2023-02-25T05:14:06.840Z,2.53
2023-02-25T05:16:34.881Z,2.46
2023-02-25T05:19:04.348Z,2.58
2023-02-25T05:21:32.720Z,2.53
2023-02-25T05:24:00.662Z,2.66
2023-02-25T05:26:28.630Z,2.79
2023-02-25T05:28:57.531Z,2.84
2023-02-25T05:31:26.153Z,2.97
2023-02-25T05:33:54.313Z,2.75
2023-02-25T05:36:27.494Z,2.71
2023-02-25T05:38:56.176Z,2.60
2023-02-25T05:41:24.176Z,2.93
2023-02-25T05:43:52.118Z,2.91
2023-02-25T05:46:20.221Z,2.89
2023-02-25T05:48:48.980Z,2.83
2023-02-25T05:51:18.013Z,2.96
2023-02-25T05:53:48.103Z,2.75
2023-02-25T05:56:17.061Z,2.76
2023-02-25T05:58:46.749Z,2.71
2023-02-25T06:01:16.343Z,2.61
2023-02-25T06:03:44.752Z,2.73
2023-02-25T06:06:14.768Z,2.55
2023-02-25T06:08:44.335Z,2.53
2023-02-25T06:11:15.382Z,2.63
2023-02-25T06:13:43.289Z,2.81
2023-02-25T06:16:11.523Z,2.94
2023-02-25T06:18:39.755Z,2.75
2023-02-25T06:21:08.554Z,2.61
2023-02-25T06:23:36.717Z,2.60
2023-02-25T06:26:05.029Z,2.73
2023-02-25T06:28:34.636Z,2.82
2023-02-25T06:31:03.123Z,2.85
2023-02-25T06:33:31.947Z,2.99
2023-02-25T06:36:00.046Z,2.98
2023-02-25T06:38:28.152Z,3.03
2023-02-25T06:40:56.392Z,2.87
2023-02-25T06:43:24.279Z,2.89
2023-02-25T06:45:53.615Z,2.63
2023-02-25T06:48:21.857Z,2.79
2023-02-25T06:50:50.300Z,3.07
2023-02-25T06:53:18.633Z,2.80
2023-02-25T06:55:46.690Z,2.83
2023-02-25T06:58:15.673Z,2.92
2023-02-25T07:00:43.641Z,2.95
2023-02-25T07:03:13.866Z,2.86
2023-02-25T07:05:41.797Z,2.80
2023-02-25T07:08:09.794Z,2.68
2023-02-25T07:10:40.551Z,2.83
2023-02-25T07:13:08.514Z,2.84
2023-02-25T07:15:36.703Z,2.68
2023-02-25T07:18:05.133Z,2.75
2023-02-25T07:20:34.467Z,2.82
2023-02-25T07:23:04.103Z,2.78
2023-02-25T07:25:32.337Z,2.70
2023-02-25T07:28:00.291Z,2.71
2023-02-25T07:30:28.232Z,2.86
2023-02-25T07:32:56.986Z,3.03
2023-02-25T07:35:25.024Z,2.87
2023-02-25T07:37:54.447Z,3.00
2023-02-25T07:40:22.616Z,3.13
2023-02-25T07:42:50.953Z,3.08
2023-02-25T07:45:19.210Z,2.85
2023-02-25T07:47:47.155Z,2.75
2023-02-25T07:50:15.108Z,2.74
2023-02-25T07:52:43.018Z,2.76
2023-02-25T07:55:13.155Z,2.75
2023-02-25T07:57:41.192Z,2.77
2023-02-25T08:00:11.593Z,2.74
2023-02-25T08:02:40.050Z,2.87
2023-02-25T08:05:08.739Z,2.92
2023-02-25T08:07:36.649Z,3.21
2023-02-25T08:10:05.403Z,2.91
2023-02-25T08:12:35.292Z,2.97
2023-02-25T08:15:03.387Z,2.75
2023-02-25T08:17:32.596Z,2.81
2023-02-25T08:20:00.485Z,2.79
2023-02-25T08:22:28.421Z,2.75
2023-02-25T08:24:56.299Z,2.74
2023-02-25T08:27:24.196Z,2.84
2023-02-25T08:29:53.517Z,2.60
2023-02-25T08:32:22.900Z,2.63
2023-02-25T08:34:52.169Z,2.60
2023-02-25T08:37:21.540Z,2.45
2023-02-25T08:39:49.704Z,2.33
2023-02-25T08:42:19.021Z,2.45
2023-02-25T08:44:46.920Z,2.47
2023-02-25T08:47:16.398Z,2.52
2023-02-25T08:49:44.342Z,2.57
2023-02-25T08:52:14.009Z,2.44
2023-02-25T08:54:42.435Z,2.48
2023-02-25T08:57:10.382Z,2.42
2023-02-25T08:59:38.981Z,2.44
2023-02-25T09:02:07.432Z,2.45
2023-02-25T09:04:36.865Z,2.45
2023-02-25T09:07:04.819Z,2.44
2023-02-25T09:09:34.142Z,2.48
2023-02-25T09:12:05.074Z,2.56
2023-02-25T09:14:33.587Z,2.75
2023-02-25T09:17:02.293Z,2.82
2023-02-25T09:19:30.339Z,2.75
2023-02-25T09:21:59.694Z,2.79
2023-02-25T09:24:30.040Z,2.82
2023-02-25T09:26:58.067Z,2.95
2023-02-25T09:29:26.080Z,3.11
2023-02-25T09:31:55.147Z,3.19
2023-02-25T09:34:23.295Z,3.22
2023-02-25T09:36:51.311Z,3.33
2023-02-25T09:39:20.978Z,3.48
2023-02-25T09:41:53.367Z,3.55
2023-02-25T09:44:23.832Z,3.57
2023-02-25T09:46:53.435Z,3.63
2023-02-25T09:49:27.083Z,3.33
2023-02-25T09:51:59.150Z,3.57
2023-02-25T09:54:31.119Z,3.51
2023-02-25T09:57:00.419Z,3.57
2023-02-25T09:59:28.970Z,3.41
2023-02-25T10:01:58.231Z,3.50
2023-02-25T10:04:32.160Z,3.38
2023-02-25T10:07:04.571Z,3.54
2023-02-25T10:09:39.427Z,3.28
2023-02-25T10:12:13.909Z,2.45
2023-02-25T10:14:55.954Z,2.09
2023-02-25T10:17:27.347Z,2.36
2023-02-25T10:20:09.414Z,2.51
2023-02-25T10:22:43.519Z,2.52
2023-02-25T10:25:14.912Z,2.68
2023-02-25T10:27:44.887Z,2.64
2023-02-25T10:30:15.773Z,2.79
2023-02-25T10:32:44.165Z,2.50
2023-02-25T10:35:20.592Z,2.85
2023-02-25T10:37:48.860Z,2.79
2023-02-25T10:40:19.878Z,3.07
2023-02-25T10:42:49.260Z,3.18
2023-02-25T10:45:21.494Z,3.37
2023-02-25T10:47:52.408Z,3.38
2023-02-25T10:50:38.954Z,3.64
2023-02-25T10:53:14.675Z,3.76
2023-02-25T10:55:52.092Z,3.78
2023-02-25T10:58:34.637Z,3.80
2023-02-25T11:01:05.634Z,3.74
2023-02-25T11:03:35.429Z,3.79
2023-02-25T11:06:11.026Z,2.56
2023-02-25T11:08:39.100Z,2.11
2023-02-25T11:11:20.768Z,1.77
2023-02-25T11:14:02.037Z,1.96
2023-02-25T11:16:30.641Z,1.99
2023-02-25T11:18:59.749Z,1.92
2023-02-25T11:21:33.003Z,1.90
2023-02-25T11:24:02.814Z,2.14
2023-02-25T11:26:34.123Z,2.42
2023-02-25T11:29:03.534Z,2.63
2023-02-25T11:31:37.827Z,2.76
2023-02-25T11:34:09.533Z,3.05
2023-02-25T11:36:39.012Z,3.39
2023-02-25T11:39:15.192Z,3.35
2023-02-25T11:41:44.815Z,3.43
2023-02-25T11:44:20.817Z,3.26
2023-02-25T11:46:51.895Z,3.42
2023-02-25T11:49:21.838Z,3.66
2023-02-25T11:51:52.074Z,3.76
2023-02-25T11:54:26.019Z,3.54
2023-02-25T11:56:57.349Z,3.85
2023-02-25T11:59:31.913Z,3.75
2023-02-25T12:02:16.867Z,3.75
2023-02-25T12:04:53.349Z,3.71
2023-02-25T12:08:12.465Z,3.54
2023-02-25T12:11:14.190Z,3.74
2023-02-25T12:14:23.987Z,3.62
2023-02-25T12:17:27.238Z,3.83
2023-02-25T12:20:30.415Z,3.62
2023-02-25T12:23:30.618Z,3.70
2023-02-25T12:26:01.656Z,3.76
2023-02-25T12:28:51.616Z,3.93
2023-02-25T12:31:36.833Z,4.12
2023-02-25T12:34:29.568Z,3.91
2023-02-25T12:37:07.151Z,3.77
2023-02-25T12:39:59.180Z,3.70
2023-02-25T12:42:38.781Z,3.48
2023-02-25T12:45:22.395Z,3.28
2023-02-25T12:48:13.341Z,3.23
2023-02-25T12:50:48.436Z,3.18
2023-02-25T12:53:23.490Z,3.25
2023-02-25T12:56:03.752Z,3.37
2023-02-25T12:58:41.127Z,3.38
2023-02-25T13:01:33.819Z,3.36
2023-02-25T13:04:14.501Z,3.44
2023-02-25T13:07:04.056Z,3.50
2023-02-25T13:09:48.254Z,3.58
2023-02-25T13:12:27.907Z,3.79
2023-02-25T13:15:00.424Z,3.81
2023-02-25T13:18:04.219Z,3.86
2023-02-25T13:20:44.362Z,3.82
2023-02-25T13:23:39.863Z,3.61
2023-02-25T13:26:24.713Z,3.53
2023-02-25T13:29:14.317Z,3.60
2023-02-25T13:31:46.722Z,3.58
2023-02-25T13:34:21.364Z,3.66
2023-02-25T13:37:12.162Z,3.45
2023-02-25T13:39:55.195Z,3.62
2023-02-25T13:42:37.330Z,3.51
2023-02-25T13:45:37.323Z,3.50
2023-02-25T13:48:24.031Z,3.45
2023-02-25T13:50:56.825Z,3.71
2023-02-25T13:53:37.751Z,3.83
2023-02-25T13:56:12.186Z,3.78
2023-02-25T13:58:50.685Z,3.98
2023-02-25T14:01:37.009Z,4.00
2023-02-25T14:04:25.751Z,3.79
2023-02-25T14:07:12.279Z,3.75
2023-02-25T14:09:44.212Z,3.71
2023-02-25T14:12:17.501Z,3.83
2023-02-25T14:15:09.872Z,3.74
2023-02-25T14:18:13.314Z,3.87
2023-02-25T14:20:46.931Z,3.86
2023-02-25T14:23:17.305Z,3.81
2023-02-25T14:25:56.406Z,3.86
2023-02-25T14:28:28.468Z,4.07
2023-02-25T14:31:03.269Z,4.04
2023-02-25T14:33:48.157Z,4.09
2023-02-25T14:36:28.115Z,4.02
2023-02-25T14:39:14.487Z,3.92
2023-02-25T14:41:52.480Z,3.92
2023-02-25T14:44:25.685Z,4.00
2023-02-25T14:46:55.797Z,4.01
2023-02-25T14:49:26.788Z,3.91
2023-02-25T14:52:19.855Z,3.94
2023-02-25T14:55:15.213Z,3.79
2023-02-25T14:58:09.317Z,3.66
2023-02-25T15:01:12.264Z,3.56
2023-02-25T15:04:15.938Z,3.48
2023-02-25T15:06:51.733Z,3.44
2023-02-25T15:09:35.701Z,3.56
2023-02-25T15:12:17.883Z,3.53
2023-02-25T15:15:34.618Z,3.63
2023-02-25T15:18:28.988Z,3.52
2023-02-25T15:20:57.489Z,3.59
2023-02-25T15:23:42.585Z,3.49
2023-02-25T15:26:22.324Z,3.49
2023-02-25T15:28:50.865Z,3.48
2023-02-25T15:31:39.096Z,3.54
2023-02-25T15:34:39.085Z,3.29
2023-02-25T15:37:28.236Z,3.34
2023-02-25T15:39:56.839Z,3.12
2023-02-25T15:42:47.987Z,3.19
2023-02-25T15:45:39.526Z,3.13
2023-02-25T15:48:34.561Z,3.02
2023-02-25T15:51:06.332Z,2.91
2023-02-25T15:53:48.143Z,3.01
2023-02-25T15:56:47.498Z,2.90
2023-02-25T15:59:42.919Z,2.81
2023-02-25T16:02:39.879Z,2.90
2023-02-25T16:05:25.684Z,2.82
2023-02-25T16:08:06.546Z,2.70
2023-02-25T16:10:41.926Z,2.69
2023-02-25T16:13:14.525Z,2.60
2023-02-25T16:15:45.252Z,2.64
2023-02-25T16:18:16.900Z,2.66
2023-02-25T16:20:47.410Z,2.60
2023-02-25T16:23:16.856Z,2.45
2023-02-25T16:25:49.736Z,2.43
2023-02-25T16:28:20.738Z,2.44
2023-02-25T16:30:51.239Z,2.38
2023-02-25T16:33:22.042Z,2.38
2023-02-25T16:35:55.346Z,2.33
2023-02-25T16:38:32.123Z,2.27
2023-02-25T16:41:00.566Z,2.15
2023-02-25T16:43:29.671Z,2.19
2023-02-25T16:45:58.316Z,2.07
2023-02-25T16:48:29.862Z,2.14
2023-02-25T16:50:57.742Z,2.10
2023-02-25T16:53:26.785Z,2.10
2023-02-25T16:56:00.179Z,2.17
2023-02-25T16:58:29.153Z,2.07
2023-02-25T17:00:58.417Z,2.01
2023-02-25T17:03:27.264Z,1.97
2023-02-25T17:06:06.321Z,2.02
2023-02-25T17:08:34.401Z,1.96
2023-02-25T17:11:04.999Z,1.84
2023-02-25T17:13:33.504Z,1.93
2023-02-25T17:16:04.004Z,1.82
2023-02-25T17:18:32.828Z,1.82
2023-02-25T17:21:03.216Z,1.75
2023-02-25T17:23:31.335Z,1.85
2023-02-25T17:25:59.272Z,1.70
2023-02-25T17:28:30.266Z,1.66
2023-02-25T17:31:06.695Z,1.73
2023-02-25T17:33:34.765Z,1.58
2023-02-25T17:36:06.223Z,1.50
2023-02-25T17:38:34.299Z,1.57
2023-02-25T17:41:02.328Z,1.49
2023-02-25T17:43:36.461Z,1.50
2023-02-25T17:46:05.356Z,1.51
2023-02-25T17:48:43.462Z,1.52
2023-02-25T17:51:15.414Z,1.47
2023-02-25T17:53:45.323Z,1.44
2023-02-25T17:56:22.599Z,1.35
2023-02-25T17:58:52.287Z,1.36
2023-02-25T18:01:23.532Z,1.36
2023-02-25T18:03:52.902Z,1.32
2023-02-25T18:06:33.333Z,1.32
2023-02-25T18:09:02.912Z,1.25
2023-02-25T18:11:32.851Z,1.25
2023-02-25T18:14:03.612Z,1.21
2023-02-25T18:16:43.222Z,1.23
2023-02-25T18:19:33.073Z,1.20
2023-02-25T18:22:01.080Z,1.18
2023-02-25T18:24:33.317Z,1.23
2023-02-25T18:27:24.633Z,1.14
2023-02-25T18:29:54.451Z,1.17
2023-02-25T18:32:22.455Z,1.13
2023-02-25T18:34:50.935Z,1.20
2023-02-25T18:37:20.579Z,1.06
2023-02-25T18:39:48.745Z,1.08
2023-02-25T18:42:17.944Z,0.96
2023-02-25T18:44:46.608Z,1.01
2023-02-25T18:47:16.866Z,0.96
2023-02-25T18:49:46.229Z,0.99
2023-02-25T18:52:19.387Z,1.02
2023-02-25T18:54:48.050Z,0.85
2023-02-25T18:57:21.821Z,0.95
2023-02-25T18:59:50.402Z,0.84
2023-02-25T19:02:25.594Z,0.87
2023-02-25T19:04:55.697Z,0.76
2023-02-25T19:07:25.656Z,0.81
2023-02-25T19:09:54.243Z,0.78
2023-02-25T19:12:26.157Z,0.69
2023-02-25T19:14:57.030Z,0.74
2023-02-25T19:17:26.549Z,0.62
2023-02-25T19:19:54.435Z,0.61
2023-02-25T19:22:23.316Z,0.57
2023-02-25T19:24:51.745Z,0.61
2023-02-25T19:27:22.099Z,0.53
2023-02-25T19:29:50.413Z,0.54
2023-02-25T19:32:18.568Z,0.53
2023-02-25T19:34:48.004Z,0.50
2023-02-25T19:37:17.238Z,0.44
2023-02-25T19:39:45.648Z,0.44
2023-02-25T19:42:13.915Z,0.37
2023-02-25T19:44:41.977Z,0.37
2023-02-25T19:47:10.054Z,0.31
2023-02-25T19:49:38.061Z,0.29
2023-02-25T19:52:07.487Z,0.29
2023-02-25T19:54:35.729Z,0.17
2023-02-25T19:57:04.603Z,0.20
2023-02-25T19:59:32.597Z,0.15
2023-02-25T20:02:01.038Z,0.28
2023-02-25T20:04:29.169Z,0.29
2023-02-25T20:06:57.065Z,0.29
2023-02-25T20:09:26.930Z,0.20
2023-02-25T20:11:55.412Z,0.24
2023-02-25T20:14:24.039Z,0.29
2023-02-25T20:16:52.325Z,0.17
2023-02-25T20:19:20.365Z,0.16
2023-02-25T20:21:48.555Z,0.25
2023-02-25T20:24:16.535Z,0.18
2023-02-25T20:26:46.633Z,0.14
2023-02-25T20:29:14.660Z,0.11
2023-02-25T20:31:43.015Z,0.11
2023-02-25T20:34:12.810Z,0.07
2023-02-25T20:36:42.456Z,0.04
2023-02-25T20:39:33.603Z,0.11
2023-02-25T20:42:04.496Z,0.00
2023-02-25T20:44:32.761Z,0.02
2023-02-25T20:47:01.472Z,-0.03
2023-02-25T20:49:29.693Z,-0.05
2023-02-25T20:51:58.354Z,-0.09
2023-02-25T20:54:26.339Z,-0.03
2023-02-25T20:56:54.277Z,-0.04
2023-02-25T20:59:23.678Z,0.02
2023-02-25T21:01:51.967Z,-0.01
2023-02-25T21:04:20.005Z,-0.01
2023-02-25T21:06:48.349Z,0.03
2023-02-25T21:09:16.309Z,0.12
2023-02-25T21:11:44.303Z,-0.04
2023-02-25T21:14:12.294Z,0.07
2023-02-25T21:16:41.607Z,-0.02
2023-02-25T21:19:09.597Z,0.00
2023-02-25T21:21:38.075Z,0.15
2023-02-25T21:24:06.366Z,0.26
2023-02-25T21:26:34.475Z,0.13
2023-02-25T21:29:02.638Z,0.13
2023-02-25T21:31:30.636Z,0.07
2023-02-25T21:34:01.835Z,0.25
2023-02-25T21:36:29.971Z,0.15
2023-02-25T21:38:57.916Z,0.19
2023-02-25T21:41:25.811Z,0.13
2023-02-25T21:43:53.761Z,0.05
2023-02-25T21:46:21.767Z,0.13
2023-02-25T21:48:53.213Z,0.15
2023-02-25T21:51:24.807Z,0.20
2023-02-25T21:53:55.208Z,0.02
2023-02-25T21:56:23.622Z,0.08
2023-02-25T21:58:54.394Z,0.14
2023-02-25T22:01:23.423Z,0.18
2023-02-25T22:03:51.460Z,0.22
2023-02-25T22:06:19.473Z,0.20
2023-02-25T22:08:48.810Z,0.24
2023-02-25T22:11:18.423Z,0.20
2023-02-25T22:13:46.361Z,0.16
2023-02-25T22:16:15.040Z,0.10
2023-02-25T22:18:43.218Z,0.17
2023-02-25T22:21:13.160Z,0.16
2023-02-25T22:23:41.392Z,0.25
2023-02-25T22:26:15.465Z,0.19
2023-02-25T22:28:46.471Z,0.05
2023-02-25T22:31:16.054Z,0.14
2023-02-25T22:33:44.273Z,0.09
2023-02-25T22:36:12.516Z,0.09
2023-02-25T22:38:44.075Z,0.03
2023-02-25T22:41:14.781Z,-0.06
2023-02-25T22:43:42.904Z,-0.06
2023-02-25T22:46:11.880Z,-0.13
2023-02-25T22:48:40.741Z,-0.20
2023-02-25T22:51:09.319Z,-0.19
2023-02-25T22:53:37.455Z,-0.27
2023-02-25T22:56:07.091Z,-0.28
2023-02-25T22:58:38.943Z,-0.22
2023-02-25T23:01:08.294Z,-0.28
2023-02-25T23:03:36.270Z,-0.27
2023-02-25T23:06:04.792Z,-0.48
2023-02-25T23:08:32.956Z,-0.40
2023-02-25T23:11:09.046Z,-0.46
2023-02-25T23:13:46.612Z,-0.47
2023-02-25T23:16:15.408Z,-0.54
2023-02-25T23:18:43.351Z,-0.58
2023-02-25T23:21:16.388Z,-0.41
2023-02-25T23:23:45.203Z,-0.54
2023-02-25T23:26:13.856Z,-0.63
2023-02-25T23:28:43.208Z,-0.64
2023-02-25T23:31:20.123Z,-0.65
2023-02-25T23:33:48.305Z,-0.74
2023-02-25T23:36:16.420Z,-0.67
2023-02-25T23:38:44.349Z,-0.78
2023-02-25T23:41:12.717Z,-0.84
2023-02-25T23:43:41.994Z,-0.82
2023-02-25T23:46:10.076Z,-0.79
2023-02-25T23:48:38.429Z,-0.81
2023-02-25T23:51:07.084Z,-0.85
2023-02-25T23:53:35.396Z,-0.75
2023-02-25T23:56:07.122Z,-0.78
2023-02-25T23:58:35.084Z,-0.84
